sensor_id;sensor_type;location;lat;lon;timestamp;temperature;humidity
73875;HTU21D;62209;47.568;7.558;2023-05-10T00:11:29;13.16;106.72
73875;HTU21D;62209;47.568;7.558;2023-05-10T00:26:35;13.11;107.20
73875;HTU21D;62209;47.568;7.558;2023-05-10T00:41:41;13.01;107.55
73875;HTU21D;62209;47.568;7.558;2023-05-10T00:56:46;13.03;107.46
73875;HTU21D;62209;47.568;7.558;2023-05-10T01:11:53;13.05;107.25
73875;HTU21D;62209;47.568;7.558;2023-05-10T01:42:25;13.04;107.18
73875;HTU21D;62209;47.568;7.558;2023-05-10T01:57:35;13.12;107.17
73875;HTU21D;62209;47.568;7.558;2023-05-10T02:12:45;13.01;106.23
73875;HTU21D;62209;47.568;7.558;2023-05-10T02:27:53;12.92;106.35
73875;HTU21D;62209;47.568;7.558;2023-05-10T02:43:00;12.96;106.56
73875;HTU21D;62209;47.568;7.558;2023-05-10T02:58:08;12.91;105.51
73875;HTU21D;62209;47.568;7.558;2023-05-10T03:13:16;12.85;105.06
73875;HTU21D;62209;47.568;7.558;2023-05-10T03:28:34;12.79;105.22
73875;HTU21D;62209;47.568;7.558;2023-05-10T03:43:41;12.69;105.22
73875;HTU21D;62209;47.568;7.558;2023-05-10T03:58:46;12.62;104.68
73875;HTU21D;62209;47.568;7.558;2023-05-10T04:13:52;12.52;105.05
73875;HTU21D;62209;47.568;7.558;2023-05-10T04:28:58;12.37;106.59
73875;HTU21D;62209;47.568;7.558;2023-05-10T04:44:04;12.20;108.57
73875;HTU21D;62209;47.568;7.558;2023-05-10T04:59:09;12.17;108.30
73875;HTU21D;62209;47.568;7.558;2023-05-10T05:14:15;12.16;109.02
73875;HTU21D;62209;47.568;7.558;2023-05-10T05:29:21;12.28;108.66
73875;HTU21D;62209;47.568;7.558;2023-05-10T05:44:27;12.35;108.24
73875;HTU21D;62209;47.568;7.558;2023-05-10T05:59:32;12.45;107.88
73875;HTU21D;62209;47.568;7.558;2023-05-10T06:14:38;12.46;106.90
73875;HTU21D;62209;47.568;7.558;2023-05-10T06:29:44;12.99;105.44
73875;HTU21D;62209;47.568;7.558;2023-05-10T06:44:52;12.93;103.31
73875;HTU21D;62209;47.568;7.558;2023-05-10T06:59:58;12.97;103.95
73875;HTU21D;62209;47.568;7.558;2023-05-10T07:15:04;13.16;100.71
73875;HTU21D;62209;47.568;7.558;2023-05-10T07:30:12;13.82;100.40
73875;HTU21D;62209;47.568;7.558;2023-05-10T07:45:18;14.91;94.61
73875;HTU21D;62209;47.568;7.558;2023-05-10T08:00:24;15.82;93.19
73875;HTU21D;62209;47.568;7.558;2023-05-10T08:15:29;15.34;90.52
73875;HTU21D;62209;47.568;7.558;2023-05-10T08:30:35;16.66;85.79
73875;HTU21D;62209;47.568;7.558;2023-05-10T08:45:41;14.70;89.70
73875;HTU21D;62209;47.568;7.558;2023-05-10T09:00:48;16.28;84.34
73875;HTU21D;62209;47.568;7.558;2023-05-10T09:15:55;15.53;84.86
73875;HTU21D;62209;47.568;7.558;2023-05-10T09:31:16;16.45;83.72
73875;HTU21D;62209;47.568;7.558;2023-05-10T09:46:22;17.09;80.40
73875;HTU21D;62209;47.568;7.558;2023-05-10T10:01:28;15.89;82.05
73875;HTU21D;62209;47.568;7.558;2023-05-10T10:16:34;16.59;81.69
73875;HTU21D;62209;47.568;7.558;2023-05-10T10:31:55;18.12;80.53
73875;HTU21D;62209;47.568;7.558;2023-05-10T10:47:10;16.95;77.66
73875;HTU21D;62209;47.568;7.558;2023-05-10T11:02:36;19.52;76.51
73875;HTU21D;62209;47.568;7.558;2023-05-10T11:17:51;19.27;73.61
73875;HTU21D;62209;47.568;7.558;2023-05-10T11:32:58;17.15;78.80
73875;HTU21D;62209;47.568;7.558;2023-05-10T11:48:04;16.49;77.96
73875;HTU21D;62209;47.568;7.558;2023-05-10T12:03:10;16.52;82.43
73875;HTU21D;62209;47.568;7.558;2023-05-10T12:18:22;16.81;82.57
73875;HTU21D;62209;47.568;7.558;2023-05-10T12:33:28;17.54;75.70
73875;HTU21D;62209;47.568;7.558;2023-05-10T12:48:42;18.39;77.06
73875;HTU21D;62209;47.568;7.558;2023-05-10T13:03:49;18.35;75.62
73875;HTU21D;62209;47.568;7.558;2023-05-10T13:18:55;17.43;77.94
73875;HTU21D;62209;47.568;7.558;2023-05-10T13:34:00;17.76;80.59
73875;HTU21D;62209;47.568;7.558;2023-05-10T13:49:06;18.57;74.09
73875;HTU21D;62209;47.568;7.558;2023-05-10T14:04:11;19.58;74.73
73875;HTU21D;62209;47.568;7.558;2023-05-10T14:19:17;19.68;73.47
73875;HTU21D;62209;47.568;7.558;2023-05-10T14:34:23;18.42;73.44
73875;HTU21D;62209;47.568;7.558;2023-05-10T14:49:29;18.93;74.70
73875;HTU21D;62209;47.568;7.558;2023-05-10T15:04:34;18.77;76.05
73875;HTU21D;62209;47.568;7.558;2023-05-10T15:19:40;18.77;75.09
73875;HTU21D;62209;47.568;7.558;2023-05-10T15:34:46;17.80;79.91
73875;HTU21D;62209;47.568;7.558;2023-05-10T15:49:52;16.33;81.04
73875;HTU21D;62209;47.568;7.558;2023-05-10T16:04:58;17.15;79.09
73875;HTU21D;62209;47.568;7.558;2023-05-10T16:20:04;16.55;84.19
73875;HTU21D;62209;47.568;7.558;2023-05-10T16:35:11;16.30;80.34
73875;HTU21D;62209;47.568;7.558;2023-05-10T16:50:17;16.58;82.97
73875;HTU21D;62209;47.568;7.558;2023-05-10T17:05:23;15.83;85.90
73875;HTU21D;62209;47.568;7.558;2023-05-10T17:20:29;15.25;86.31
73875;HTU21D;62209;47.568;7.558;2023-05-10T17:35:35;15.23;85.38
73875;HTU21D;62209;47.568;7.558;2023-05-10T17:50:41;14.82;87.02
73875;HTU21D;62209;47.568;7.558;2023-05-10T18:05:47;14.59;88.89
73875;HTU21D;62209;47.568;7.558;2023-05-10T18:20:53;14.26;89.78
73875;HTU21D;62209;47.568;7.558;2023-05-10T18:36:00;13.60;90.43
73875;HTU21D;62209;47.568;7.558;2023-05-10T18:51:06;13.44;91.46
73875;HTU21D;62209;47.568;7.558;2023-05-10T19:06:12;13.11;92.59
73875;HTU21D;62209;47.568;7.558;2023-05-10T19:21:19;12.85;93.33
73875;HTU21D;62209;47.568;7.558;2023-05-10T19:36:28;12.72;93.46
73875;HTU21D;62209;47.568;7.558;2023-05-10T19:51:34;12.69;93.37
73875;HTU21D;62209;47.568;7.558;2023-05-10T20:06:40;12.45;93.77
73875;HTU21D;62209;47.568;7.558;2023-05-10T20:21:46;12.38;94.04
73875;HTU21D;62209;47.568;7.558;2023-05-10T20:36:52;12.30;93.90
73875;HTU21D;62209;47.568;7.558;2023-05-10T20:51:57;12.32;94.39
73875;HTU21D;62209;47.568;7.558;2023-05-10T21:07:03;12.21;93.50
73875;HTU21D;62209;47.568;7.558;2023-05-10T21:22:09;12.05;94.02
73875;HTU21D;62209;47.568;7.558;2023-05-10T21:37:15;12.08;93.87
73875;HTU21D;62209;47.568;7.558;2023-05-10T21:52:21;12.13;94.43
73875;HTU21D;62209;47.568;7.558;2023-05-10T22:07:26;12.17;94.02
73875;HTU21D;62209;47.568;7.558;2023-05-10T22:22:33;11.98;93.82
73875;HTU21D;62209;47.568;7.558;2023-05-10T22:37:40;12.07;94.25
73875;HTU21D;62209;47.568;7.558;2023-05-10T22:52:45;12.07;93.77
73875;HTU21D;62209;47.568;7.558;2023-05-10T23:07:51;12.16;93.85
73875;HTU21D;62209;47.568;7.558;2023-05-10T23:22:57;12.15;94.11
73875;HTU21D;62209;47.568;7.558;2023-05-10T23:38:02;12.05;94.12
73875;HTU21D;62209;47.568;7.558;2023-05-10T23:53:08;12.19;94.35
